createdAt,value
2018-09-13T00:02:01.500Z,12.60
2018-09-13T00:04:30.994Z,12.60
2018-09-13T00:07:00.498Z,12.60
2018-09-13T00:09:30.911Z,12.60
2018-09-13T00:12:00.467Z,12.60
2018-09-13T00:14:31.006Z,12.60
2018-09-13T00:17:00.670Z,12.50
2018-09-13T00:19:30.903Z,12.50
2018-09-13T00:22:00.712Z,12.40
2018-09-13T00:24:30.859Z,12.40
2018-09-13T00:27:00.487Z,12.40
2018-09-13T00:29:30.887Z,12.40
2018-09-13T00:32:00.486Z,12.40
2018-09-13T00:34:30.858Z,12.40
2018-09-13T00:37:00.470Z,12.40
2018-09-13T00:39:31.003Z,12.40
2018-09-13T00:42:00.595Z,12.40
2018-09-13T00:49:25.872Z,12.40
2018-09-13T00:51:55.381Z,12.30
2018-09-13T00:54:24.840Z,12.30
2018-09-13T00:56:54.325Z,12.20
2018-09-13T00:59:23.834Z,12.20
2018-09-13T01:01:53.478Z,12.20
2018-09-13T01:04:23.098Z,12.30
2018-09-13T01:06:52.683Z,12.40
2018-09-13T01:09:22.377Z,12.50
2018-09-13T01:11:52.033Z,12.50
2018-09-13T01:14:21.599Z,12.50
2018-09-13T01:16:51.193Z,12.40
2018-09-13T01:19:20.807Z,12.50
2018-09-13T01:21:50.500Z,12.60
2018-09-13T01:24:22.491Z,12.60
2018-09-13T01:26:52.172Z,12.60
2018-09-13T01:29:21.749Z,12.60
2018-09-13T01:31:51.513Z,12.60
2018-09-13T01:34:21.115Z,12.70
2018-09-13T01:36:50.661Z,12.70
2018-09-13T01:39:20.339Z,12.70
2018-09-13T01:41:49.934Z,12.70
2018-09-13T01:44:19.563Z,12.70
2018-09-13T01:46:49.335Z,12.70
2018-09-13T01:49:18.781Z,12.70
2018-09-13T01:51:48.316Z,12.70
2018-09-13T01:54:18.010Z,12.70
2018-09-13T01:56:47.579Z,12.70
2018-09-13T01:59:17.141Z,12.70
2018-09-13T02:01:46.576Z,12.70
2018-09-13T02:04:16.035Z,12.70
2018-09-13T02:06:45.620Z,12.70
2018-09-13T02:09:15.131Z,12.80
2018-09-13T02:11:44.756Z,12.80
2018-09-13T02:14:14.290Z,12.80
2018-09-13T02:16:43.775Z,12.80
2018-09-13T02:19:13.308Z,12.80
2018-09-13T02:21:42.949Z,12.70
2018-09-13T02:24:12.523Z,12.80
2018-09-13T02:26:42.175Z,12.80
2018-09-13T02:29:11.793Z,12.80
2018-09-13T02:31:41.419Z,12.80
2018-09-13T02:34:12.295Z,12.80
2018-09-13T02:36:41.923Z,12.80
2018-09-13T02:39:11.588Z,12.80
2018-09-13T02:41:41.155Z,12.80
2018-09-13T02:44:10.695Z,12.80
2018-09-13T02:46:40.258Z,12.80
2018-09-13T02:49:10.418Z,12.90
2018-09-13T02:51:39.901Z,12.90
2018-09-13T02:54:09.474Z,12.90
2018-09-13T02:56:39.084Z,12.80
2018-09-13T03:01:08.263Z,12.70
2018-09-13T03:03:37.909Z,12.70
2018-09-13T03:06:07.497Z,12.80
2018-09-13T03:08:37.162Z,12.80
2018-09-13T03:11:06.763Z,12.80
2018-09-13T03:13:36.250Z,12.80
2018-09-13T03:16:05.774Z,12.90
2018-09-13T03:18:35.422Z,12.90
2018-09-13T03:21:05.089Z,12.90
2018-09-13T03:23:37.149Z,12.90
2018-09-13T03:26:06.862Z,12.90
2018-09-13T03:28:36.501Z,12.90
2018-09-13T03:31:06.060Z,12.80
2018-09-13T03:33:35.788Z,12.80
2018-09-13T03:36:05.309Z,12.80
2018-09-13T03:38:34.823Z,12.70
2018-09-13T03:41:04.406Z,12.60
2018-09-13T03:43:34.109Z,12.50
2018-09-13T03:46:03.717Z,12.40
2018-09-13T03:48:33.278Z,12.40
2018-09-13T03:51:06.027Z,12.30
2018-09-13T03:53:35.687Z,12.20
2018-09-13T03:56:05.413Z,12.10
2018-09-13T03:58:35.017Z,12.00
2018-09-13T04:01:04.616Z,12.00
2018-09-13T04:03:34.632Z,11.90
2018-09-13T04:06:04.318Z,11.80
2018-09-13T04:08:33.951Z,11.80
2018-09-13T04:11:03.771Z,11.70
2018-09-13T04:18:29.526Z,11.60
2018-09-13T04:20:59.142Z,11.40
2018-09-13T04:23:28.769Z,11.30
2018-09-13T04:25:58.352Z,11.20
2018-09-13T04:28:27.962Z,11.10
2018-09-13T04:30:57.473Z,11.10
2018-09-13T04:33:26.940Z,11.10
2018-09-13T04:35:56.812Z,11.10
2018-09-13T04:38:26.481Z,11.10
2018-09-13T04:40:56.222Z,11.00
2018-09-13T04:43:25.785Z,10.90
2018-09-13T04:45:55.370Z,10.80
2018-09-13T04:48:25.072Z,10.80
2018-09-13T04:50:54.576Z,10.70
2018-09-13T04:53:24.199Z,10.70
2018-09-13T04:55:54.789Z,10.70
2018-09-13T04:58:24.612Z,10.60
2018-09-13T05:00:54.219Z,10.50
2018-09-13T05:03:29.212Z,10.50
2018-09-13T05:05:58.766Z,10.40
2018-09-13T05:08:28.347Z,10.40
2018-09-13T05:10:58.347Z,10.30
2018-09-13T05:13:27.893Z,10.30
2018-09-13T05:20:52.441Z,10.20
2018-09-13T05:23:22.599Z,10.30
2018-09-13T05:25:52.246Z,10.40
2018-09-13T05:28:21.795Z,10.50
2018-09-13T05:30:51.229Z,10.60
2018-09-13T05:33:20.719Z,10.80
2018-09-13T05:35:50.355Z,11.00
2018-09-13T05:38:20.085Z,11.40
2018-09-13T05:40:49.725Z,11.90
2018-09-13T05:43:19.400Z,12.50
2018-09-13T05:45:48.979Z,13.20
2018-09-13T05:48:18.561Z,14.00
2018-09-13T05:50:48.153Z,14.60
2018-09-13T05:53:17.649Z,15.30
2018-09-13T05:55:47.547Z,15.80
2018-09-13T05:58:17.046Z,16.00
2018-09-13T06:00:46.634Z,16.20
2018-09-13T06:03:16.267Z,16.30
2018-09-13T06:05:45.881Z,16.40
2018-09-13T06:08:15.416Z,16.60
2018-09-13T06:10:44.910Z,16.70
2018-09-13T06:13:14.617Z,16.80
2018-09-13T06:15:44.743Z,16.90
2018-09-13T06:18:15.160Z,17.00
2018-09-13T06:20:44.870Z,17.10
2018-09-13T06:23:14.357Z,17.20
2018-09-13T06:25:44.072Z,17.30
2018-09-13T06:28:13.724Z,17.40
2018-09-13T06:30:43.213Z,17.50
2018-09-13T06:33:12.770Z,17.70
2018-09-13T06:35:42.335Z,17.90
2018-09-13T06:38:11.942Z,18.10
2018-09-13T06:40:41.482Z,18.20
2018-09-13T06:43:11.063Z,18.40
2018-09-13T06:45:40.688Z,18.60
2018-09-13T06:48:10.276Z,18.80
2018-09-13T06:50:39.844Z,19.00
2018-09-13T06:53:09.454Z,19.10
2018-09-13T06:55:39.030Z,19.20
2018-09-13T06:58:08.731Z,19.30
2018-09-13T07:00:38.308Z,19.40
2018-09-13T07:03:07.856Z,19.50
2018-09-13T07:05:37.420Z,19.40
2018-09-13T07:08:07.079Z,19.30
2018-09-13T07:10:37.094Z,19.30
2018-09-13T07:13:06.634Z,19.40
2018-09-13T07:15:36.290Z,19.60
2018-09-13T07:18:06.359Z,19.80
2018-09-13T07:25:30.727Z,20.30
2018-09-13T07:28:00.247Z,20.50
2018-09-13T07:30:29.824Z,20.70
2018-09-13T07:32:59.396Z,20.80
2018-09-13T07:35:28.994Z,21.00
2018-09-13T07:37:58.476Z,21.00
2018-09-13T07:40:27.936Z,21.00
2018-09-13T07:42:57.670Z,21.10
2018-09-13T07:45:27.015Z,20.90
2018-09-13T07:47:56.886Z,20.70
2018-09-13T07:50:26.518Z,20.70
2018-09-13T07:52:56.383Z,20.70
2018-09-13T07:55:25.873Z,20.60
2018-09-13T07:57:55.367Z,20.40
2018-09-13T08:00:24.992Z,20.20
2018-09-13T08:02:54.602Z,19.90
2018-09-13T08:05:24.219Z,19.60
2018-09-13T08:07:53.836Z,19.40
2018-09-13T08:10:23.351Z,19.20
2018-09-13T08:20:07.738Z,19.00
2018-09-13T08:22:37.200Z,18.80
2018-09-13T08:25:06.734Z,18.70
2018-09-13T08:27:36.347Z,18.70
2018-09-13T08:30:05.817Z,18.70
2018-09-13T08:32:35.446Z,18.70
2018-09-13T08:35:05.747Z,18.60
2018-09-13T08:37:35.364Z,18.40
2018-09-13T08:40:04.890Z,18.30
2018-09-13T08:42:34.560Z,18.20
2018-09-13T08:45:04.798Z,18.20
2018-09-13T08:47:34.272Z,18.30
2018-09-13T08:50:04.003Z,18.20
2018-09-13T08:52:33.601Z,18.20
2018-09-13T08:55:03.281Z,18.20
2018-09-13T08:57:32.654Z,18.20
2018-09-13T09:00:02.119Z,18.30
2018-09-13T09:02:32.704Z,18.30
2018-09-13T09:05:02.255Z,18.30
2018-09-13T09:07:32.749Z,18.40
2018-09-13T09:10:02.173Z,18.50
2018-09-13T09:12:32.899Z,18.50
2018-09-13T09:15:02.375Z,18.40
2018-09-13T09:17:32.839Z,18.40
2018-09-13T09:20:02.449Z,18.50
2018-09-13T09:22:32.691Z,18.50
2018-09-13T09:25:02.299Z,18.50
2018-09-13T09:27:32.787Z,18.50
2018-09-13T09:30:02.403Z,18.60
2018-09-13T09:32:32.748Z,18.70
2018-09-13T09:35:02.330Z,18.90
2018-09-13T09:37:32.702Z,19.10
2018-09-13T09:40:02.172Z,19.20
2018-09-13T09:42:31.652Z,19.30
2018-09-13T09:45:01.224Z,19.30
2018-09-13T09:47:30.828Z,19.40
2018-09-13T09:50:00.239Z,19.40
2018-09-13T09:52:29.923Z,19.40
2018-09-13T09:54:59.418Z,19.50
2018-09-13T09:57:28.979Z,19.60
2018-09-13T09:59:58.538Z,19.60
2018-09-13T10:02:28.102Z,19.70
2018-09-13T10:04:57.702Z,19.70
2018-09-13T10:07:27.311Z,19.70
2018-09-13T10:09:56.900Z,19.70
2018-09-13T10:12:26.531Z,19.70
2018-09-13T10:15:01.444Z,19.60
2018-09-13T10:17:36.164Z,19.50
2018-09-13T10:20:10.934Z,19.20
2018-09-13T10:22:45.737Z,19.00
2018-09-13T10:25:22.546Z,18.80
2018-09-13T10:27:57.544Z,18.70
2018-09-13T10:30:32.615Z,18.70
2018-09-13T10:33:07.519Z,18.60
2018-09-13T10:40:43.837Z,18.40
2018-09-13T10:43:18.515Z,18.30
2018-09-13T10:45:53.356Z,18.40
2018-09-13T10:48:27.566Z,18.40
2018-09-13T10:51:02.247Z,18.50
2018-09-13T10:53:37.072Z,18.60
2018-09-13T10:56:06.945Z,18.60
2018-09-13T10:58:36.417Z,18.60
2018-09-13T11:01:05.855Z,18.60
2018-09-13T11:03:36.826Z,18.60
2018-09-13T11:06:06.296Z,18.70
2018-09-13T11:08:35.940Z,18.70
2018-09-13T11:11:05.632Z,18.80
2018-09-13T11:13:40.823Z,18.70
2018-09-13T11:16:10.441Z,18.70
2018-09-13T11:18:40.055Z,18.70
2018-09-13T11:21:09.613Z,18.80
2018-09-13T11:23:39.204Z,18.90
2018-09-13T11:26:08.795Z,18.90
2018-09-13T11:28:38.426Z,18.80
2018-09-13T11:31:07.877Z,18.80
2018-09-13T11:33:37.492Z,18.80
2018-09-13T11:36:07.035Z,18.80
2018-09-13T11:38:36.543Z,18.80
2018-09-13T11:41:06.096Z,18.80
2018-09-13T11:43:35.700Z,18.90
2018-09-13T11:46:05.290Z,19.00
2018-09-13T11:48:34.804Z,19.10
2018-09-13T11:51:04.266Z,19.10
2018-09-13T11:53:33.818Z,19.00
2018-09-13T11:56:03.419Z,19.00
2018-09-13T11:58:33.236Z,19.00
2018-09-13T12:01:02.809Z,18.90
2018-09-13T12:03:33.271Z,18.90
2018-09-13T12:06:02.887Z,18.80
2018-09-13T12:08:33.399Z,18.80
2018-09-13T12:11:02.943Z,18.90
2018-09-13T12:13:33.415Z,19.10
2018-09-13T12:16:03.947Z,19.20
2018-09-13T12:18:33.446Z,19.10
2018-09-13T12:21:03.138Z,18.90
2018-09-13T12:23:33.528Z,18.90
2018-09-13T12:26:03.358Z,18.90
2018-09-13T12:28:33.531Z,19.00
2018-09-13T12:31:03.171Z,19.00
2018-09-13T12:33:33.404Z,19.00
2018-09-13T12:36:03.006Z,19.00
2018-09-13T12:38:33.451Z,18.80
2018-09-13T12:41:03.186Z,18.80
2018-09-13T12:43:33.486Z,18.90
2018-09-13T12:46:02.998Z,18.90
2018-09-13T12:48:33.399Z,18.80
2018-09-13T12:51:02.937Z,18.80
2018-09-13T12:53:33.587Z,18.80
2018-09-13T12:56:03.045Z,19.00
2018-09-13T12:58:33.403Z,19.10
2018-09-13T13:01:02.844Z,19.10
2018-09-13T13:03:32.280Z,19.10
2018-09-13T13:06:01.974Z,19.10
2018-09-13T13:08:31.584Z,19.00
2018-09-13T13:11:01.110Z,19.00
2018-09-13T13:13:30.685Z,18.90
2018-09-13T13:16:00.348Z,18.80
2018-09-13T13:18:29.939Z,18.90
2018-09-13T13:20:59.455Z,18.90
2018-09-13T13:23:28.998Z,18.90
2018-09-13T13:25:58.578Z,18.60
2018-09-13T13:28:28.185Z,18.50
2018-09-13T13:30:57.764Z,18.30
2018-09-13T13:33:27.460Z,18.30
2018-09-13T13:35:56.955Z,18.40
2018-09-13T13:40:39.896Z,18.30
2018-09-13T13:43:09.300Z,18.30
2018-09-13T13:45:38.832Z,18.40
2018-09-13T13:48:08.439Z,18.30
2018-09-13T13:50:38.015Z,18.30
2018-09-13T13:53:07.525Z,18.30
2018-09-13T13:55:37.156Z,18.20
2018-09-13T13:58:06.720Z,18.20
2018-09-13T14:00:36.422Z,18.20
2018-09-13T14:03:06.539Z,18.00
2018-09-13T14:05:36.099Z,18.00
2018-09-13T14:08:05.672Z,18.20
2018-09-13T14:10:35.251Z,18.30
2018-09-13T14:13:04.800Z,18.40
2018-09-13T14:15:34.512Z,18.50
2018-09-13T14:18:04.084Z,18.50
2018-09-13T14:20:33.815Z,18.50
2018-09-13T14:23:03.173Z,18.50
2018-09-13T14:25:33.845Z,18.40
2018-09-13T14:28:03.460Z,18.40
2018-09-13T14:30:33.719Z,18.10
2018-09-13T14:33:03.345Z,17.80
2018-09-13T14:35:33.871Z,17.70
2018-09-13T14:38:03.406Z,17.80
2018-09-13T14:40:33.836Z,17.80
2018-09-13T14:43:03.547Z,17.90
2018-09-13T14:45:33.887Z,18.00
2018-09-13T14:48:03.503Z,18.00
2018-09-13T14:50:33.832Z,18.10
2018-09-13T14:53:03.451Z,18.10
2018-09-13T14:55:33.842Z,18.10
2018-09-13T14:58:03.374Z,18.20
2018-09-13T15:00:33.799Z,18.30
2018-09-13T15:03:03.246Z,18.30
2018-09-13T15:05:33.992Z,18.30
2018-09-13T15:08:03.449Z,18.30
2018-09-13T15:10:33.900Z,18.50
2018-09-13T15:13:03.914Z,18.50
2018-09-13T15:15:33.951Z,18.50
2018-09-13T15:18:03.624Z,18.60
2018-09-13T15:20:34.192Z,18.60
2018-09-13T15:23:03.781Z,18.70
2018-09-13T15:25:34.249Z,18.60
2018-09-13T15:28:03.803Z,18.60
2018-09-13T15:30:34.225Z,18.60
2018-09-13T15:33:03.678Z,18.60
2018-09-13T15:35:34.092Z,18.50
2018-09-13T15:38:03.579Z,18.40
2018-09-13T15:40:33.966Z,18.20
2018-09-13T15:43:03.366Z,18.10
2018-09-13T15:45:33.764Z,18.00
2018-09-13T15:48:03.144Z,18.00
2018-09-13T15:50:32.618Z,18.00
2018-09-13T15:53:02.114Z,18.00
2018-09-13T15:55:31.650Z,17.90
2018-09-13T15:58:01.081Z,17.90
2018-09-13T16:00:30.629Z,17.90
2018-09-13T16:03:00.242Z,17.80
2018-09-13T16:05:29.816Z,17.80
2018-09-13T16:07:59.320Z,17.80
2018-09-13T16:10:31.486Z,17.80
2018-09-13T16:13:04.256Z,17.90
2018-09-13T16:15:36.156Z,18.00
2018-09-13T16:18:07.685Z,18.10
2018-09-13T16:20:38.512Z,18.20
2018-09-13T16:23:08.051Z,18.20
2018-09-13T16:25:37.674Z,18.30
2018-09-13T16:28:07.339Z,18.40
2018-09-13T16:30:36.833Z,18.40
2018-09-13T16:33:06.516Z,18.40
2018-09-13T16:35:40.832Z,18.30
2018-09-13T16:38:15.625Z,18.20
2018-09-13T16:40:50.491Z,18.20
2018-09-13T16:43:24.291Z,18.10
2018-09-13T16:45:53.930Z,18.10
2018-09-13T16:48:27.667Z,18.00
2018-09-13T16:50:57.323Z,18.00
2018-09-13T16:53:26.769Z,17.90
2018-09-13T16:55:56.374Z,17.90
2018-09-13T16:58:25.835Z,17.80
2018-09-13T17:00:55.214Z,17.80
2018-09-13T17:03:25.315Z,17.80
2018-09-13T17:05:54.913Z,17.70
2018-09-13T17:08:24.513Z,17.70
2018-09-13T17:10:54.599Z,17.60
2018-09-13T17:13:24.163Z,17.60
2018-09-13T17:15:53.769Z,17.50
2018-09-13T17:18:23.291Z,17.50
2018-09-13T17:20:52.847Z,17.40
2018-09-13T17:23:22.424Z,17.40
2018-09-13T17:25:51.891Z,17.30
2018-09-13T17:28:21.527Z,17.30
2018-09-13T17:30:51.061Z,17.30
2018-09-13T17:33:20.547Z,17.20
2018-09-13T17:35:50.363Z,17.10
2018-09-13T17:38:19.979Z,17.10
2018-09-13T17:40:49.471Z,17.00
2018-09-13T17:43:18.922Z,17.00
2018-09-13T17:45:48.448Z,16.90
2018-09-13T17:48:17.944Z,16.80
2018-09-13T17:50:47.693Z,16.80
2018-09-13T17:53:17.256Z,16.80
2018-09-13T17:55:46.990Z,16.70
2018-09-13T17:58:16.548Z,16.70
2018-09-13T18:00:46.072Z,16.70
2018-09-13T18:03:15.652Z,16.70
2018-09-13T18:05:45.151Z,16.60
2018-09-13T18:08:14.791Z,16.60
2018-09-13T18:10:44.386Z,16.60
2018-09-13T18:13:13.883Z,16.60
2018-09-13T18:15:43.434Z,16.50
2018-09-13T18:18:12.911Z,16.40
2018-09-13T18:20:42.372Z,16.40
2018-09-13T18:23:11.792Z,16.30
2018-09-13T18:25:41.328Z,16.20
2018-09-13T18:28:10.932Z,16.10
2018-09-13T18:30:40.379Z,16.10
2018-09-13T18:33:09.867Z,16.10
2018-09-13T18:35:41.987Z,16.00
2018-09-13T18:38:13.362Z,16.00
2018-09-13T18:40:42.980Z,16.00
2018-09-13T18:43:12.488Z,16.00
2018-09-13T18:45:42.213Z,16.00
2018-09-13T18:48:11.708Z,16.00
2018-09-13T18:50:41.232Z,16.00
2018-09-13T18:53:10.837Z,16.00
2018-09-13T18:55:40.354Z,16.00
2018-09-13T18:58:09.952Z,15.90
2018-09-13T19:00:39.616Z,15.90
2018-09-13T19:03:09.095Z,15.80
2018-09-13T19:05:38.558Z,15.90
2018-09-13T19:08:08.176Z,15.90
2018-09-13T19:10:37.720Z,15.90
2018-09-13T19:13:07.452Z,15.90
2018-09-13T19:15:37.439Z,16.00
2018-09-13T19:18:06.988Z,15.90
2018-09-13T19:20:36.467Z,15.90
2018-09-13T19:23:06.425Z,15.90
2018-09-13T19:25:36.077Z,15.90
2018-09-13T19:28:05.690Z,15.90
2018-09-13T19:30:35.392Z,15.90
2018-09-13T19:33:05.050Z,15.90
2018-09-13T19:35:34.926Z,15.80
2018-09-13T19:40:36.346Z,15.80
2018-09-13T19:43:06.370Z,15.70
2018-09-13T19:45:35.895Z,15.70
2018-09-13T19:48:05.489Z,15.60
2018-09-13T19:50:35.087Z,15.60
2018-09-13T19:53:04.546Z,15.60
2018-09-13T19:55:34.993Z,15.60
2018-09-13T19:58:04.854Z,15.50
2018-09-13T20:00:35.039Z,15.40
2018-09-13T20:03:04.796Z,15.40
2018-09-13T20:05:34.951Z,15.30
2018-09-13T20:08:04.618Z,15.20
2018-09-13T20:10:35.107Z,15.20
2018-09-13T20:13:04.888Z,15.10
2018-09-13T20:15:35.042Z,15.10
2018-09-13T20:18:04.650Z,15.10
2018-09-13T20:23:05.873Z,15.00
2018-09-13T20:25:35.295Z,15.00
2018-09-13T20:28:04.957Z,14.90
2018-09-13T20:30:35.059Z,14.90
2018-09-13T20:33:04.569Z,14.90
2018-09-13T20:35:35.004Z,14.90
2018-09-13T20:38:04.501Z,14.90
2018-09-13T20:40:35.026Z,14.90
2018-09-13T20:43:04.469Z,14.90
2018-09-13T20:45:33.995Z,14.80
2018-09-13T20:48:03.626Z,14.80
2018-09-13T20:50:33.255Z,14.80
2018-09-13T20:53:02.897Z,14.80
2018-09-13T20:55:32.411Z,14.80
2018-09-13T20:58:02.029Z,14.80
2018-09-13T21:00:31.605Z,14.80
2018-09-13T21:03:01.258Z,14.80
2018-09-13T21:05:30.834Z,14.80
2018-09-13T21:08:00.418Z,14.70
2018-09-13T21:10:29.800Z,14.70
2018-09-13T21:17:54.535Z,14.70
2018-09-13T21:20:23.969Z,14.60
2018-09-13T21:22:53.587Z,14.50
2018-09-13T21:25:23.070Z,14.50
2018-09-13T21:27:52.560Z,14.50
2018-09-13T21:30:22.184Z,14.40
2018-09-13T21:32:51.664Z,14.30
2018-09-13T21:35:21.261Z,14.30
2018-09-13T21:37:51.037Z,14.30
2018-09-13T21:40:20.696Z,14.30
2018-09-13T21:42:53.820Z,14.20
2018-09-13T21:45:23.391Z,14.20
2018-09-13T21:47:52.834Z,14.20
2018-09-13T21:50:22.284Z,14.20
2018-09-13T21:52:52.119Z,14.20
2018-09-13T21:55:21.706Z,14.20
2018-09-13T21:57:51.416Z,14.20
2018-09-13T22:00:20.919Z,14.20
2018-09-13T22:02:50.490Z,14.20
2018-09-13T22:05:19.973Z,14.10
2018-09-13T22:07:49.576Z,14.10
2018-09-13T22:10:19.120Z,14.10
2018-09-13T22:12:48.608Z,14.10
2018-09-13T22:15:18.154Z,14.10
2018-09-13T22:17:47.712Z,14.00
2018-09-13T22:20:17.444Z,14.00
2018-09-13T22:22:46.972Z,13.90
2018-09-13T22:25:16.656Z,13.80
2018-09-13T22:27:46.111Z,13.80
2018-09-13T22:30:15.521Z,13.80
2018-09-13T22:32:44.992Z,13.80
2018-09-13T22:35:14.850Z,13.80
2018-09-13T22:37:44.370Z,13.80
2018-09-13T22:40:13.829Z,13.80
2018-09-13T22:42:43.389Z,13.80
2018-09-13T22:45:13.034Z,13.80
2018-09-13T22:47:42.624Z,13.80
2018-09-13T22:50:12.220Z,13.80
2018-09-13T22:52:41.835Z,13.80
2018-09-13T22:55:11.314Z,13.80
2018-09-13T22:57:40.936Z,13.80
2018-09-13T23:00:10.574Z,13.80
2018-09-13T23:02:45.111Z,13.80
2018-09-13T23:05:15.512Z,13.80
2018-09-13T23:07:45.363Z,13.80
2018-09-13T23:10:15.109Z,13.80
2018-09-13T23:12:44.569Z,13.80
2018-09-13T23:15:14.188Z,13.80
2018-09-13T23:17:43.740Z,13.80
2018-09-13T23:20:13.211Z,13.90
2018-09-13T23:22:44.213Z,13.80
2018-09-13T23:25:13.711Z,13.80
2018-09-13T23:27:43.281Z,13.80
2018-09-13T23:30:12.863Z,13.80
2018-09-13T23:32:42.455Z,13.80
2018-09-13T23:35:12.074Z,13.70
2018-09-13T23:37:41.480Z,13.70
2018-09-13T23:40:11.203Z,13.70
2018-09-13T23:42:40.778Z,13.70
2018-09-13T23:45:10.418Z,13.70
2018-09-13T23:47:39.894Z,13.70
2018-09-13T23:50:09.304Z,13.70
2018-09-13T23:52:38.773Z,13.70
2018-09-13T23:55:08.197Z,13.70
2018-09-13T23:57:37.863Z,13.60
